PWSweather.com
Personal Weather Stations
Station Observations
COONRAPIDS
Minneapolis, MN 55433

Minneapolis, MN 55433

Lat: 45.187721, Lon: -93.36828

Elevation: 898

Station Type: Davis Vantage Pro 2

Latest ConditionsUpdated 1:00:00 PM CDT Sunday, Sep 21, 2014
Currently Today's Max Today's Min Today's Average
Temperature 62.1°F16.7°C 62.1°F16.7°C 52.5°F11.4°C 55.0°F12.8°C
Dew Point 47.6°F8.7°C 49.6°F9.8°C 45.7°F7.6°C 47.1°F8.4°C
Winds 1.8 mph NW2.9 kmh NW 3.7 mph W6.0 kmh W - 0.9 mph 1.4 kmh
Wind Gusts 7.0 mph11.3 kmh 10.0 mph16.1 kmh - -
Humidity 59% 80% 59% 75%
Pressure 30.10 in1019.3 mb 30.10 in1019.3 mb 29.79 in1008.8 mb -
Hour Temp Dew Point Humidity Winds Wind Gusts Pressure Precip Precip Rate Daily Precip Total
01:00 PM 62.1°F16.7°C 47.6°F8.7°C 59% 1.8 mph NW2.9 kmh NW 7.0 mph11.3 kmh 30.10 in1019.3 mb 0.00 in0.0 mm 0.00 in/hr0.0 mm/hr 0.00 in0.0 mm
12:50 PM 62.1°F16.7°C 48.0°F8.9°C 60% 1.3 mph N2.1 kmh N 4.0 mph6.4 kmh 30.10 in1019.3 mb 0.00 in0.0 mm 0.00 in/hr0.0 mm/hr 0.00 in0.0 mm
12:40 PM 61.4°F16.3°C 48.3°F9.1°C 62% Calm Calm 2.0 mph3.2 kmh 30.10 in1019.3 mb 0.00 in0.0 mm 0.00 in/hr0.0 mm/hr 0.00 in0.0 mm
12:30 PM 61.1°F16.2°C 48.4°F9.1°C 63% 0.1 mph NW0.2 kmh NW 4.0 mph6.4 kmh 30.10 in1019.3 mb 0.00 in0.0 mm 0.00 in/hr0.0 mm/hr 0.00 in0.0 mm
12:20 PM 60.1°F15.6°C 47.9°F8.8°C 64% 0.2 mph NNE0.3 kmh NNE 3.0 mph4.8 kmh 30.10 in1019.3 mb 0.00 in0.0 mm 0.00 in/hr0.0 mm/hr 0.00 in0.0 mm
12:10 PM 61.2°F16.2°C 48.1°F8.9°C 62% 1.3 mph NE2.1 kmh NE 3.0 mph4.8 kmh 30.10 in1019.3 mb 0.00 in0.0 mm 0.00 in/hr0.0 mm/hr 0.00 in0.0 mm
12:00 PM 60.7°F15.9°C 48.0°F8.9°C 63% 3.4 mph NNE5.5 kmh NNE 6.0 mph9.7 kmh 30.09 in1019.0 mb 0.00 in0.0 mm 0.00 in/hr0.0 mm/hr 0.00 in0.0 mm
11:50 AM 59.2°F15.1°C 48.3°F9.1°C 67% 2.9 mph NNE4.7 kmh NNE 5.0 mph8.0 kmh 30.09 in1019.0 mb 0.00 in0.0 mm 0.00 in/hr0.0 mm/hr 0.00 in0.0 mm
11:40 AM 59.3°F15.2°C 47.5°F8.6°C 65% Calm Calm 2.0 mph3.2 kmh 30.09 in1019.0 mb 0.00 in0.0 mm 0.00 in/hr0.0 mm/hr 0.00 in0.0 mm
11:30 AM 59.9°F15.5°C 48.1°F8.9°C 65% 0.7 mph NNW1.1 kmh NNW -- 30.09 in1019.0 mb 0.00 in0.0 mm 0.00 in/hr0.0 mm/hr 0.00 in0.0 mm
11:20 AM 58.7°F14.8°C 47.4°F8.6°C 66% 2.5 mph NNE4.0 kmh NNE 5.0 mph8.0 kmh 30.09 in1019.0 mb 0.00 in0.0 mm 0.00 in/hr0.0 mm/hr 0.00 in0.0 mm
11:10 AM 58.5°F14.7°C 47.6°F8.7°C 67% 0.1 mph NW0.2 kmh NW -- 30.09 in1019.0 mb 0.00 in0.0 mm 0.00 in/hr0.0 mm/hr 0.00 in0.0 mm
11:00 AM 58.5°F14.7°C 49.2°F9.6°C 71% 0.4 mph NNW0.6 kmh NNW 3.0 mph4.8 kmh 30.08 in1018.6 mb 0.00 in0.0 mm 0.00 in/hr0.0 mm/hr 0.00 in0.0 mm
10:50 AM 56.7°F13.7°C 48.1°F8.9°C 73% 0.4 mph NNE0.6 kmh NNE -- 30.08 in1018.6 mb 0.00 in0.0 mm 0.00 in/hr0.0 mm/hr 0.00 in0.0 mm
10:40 AM 56.6°F13.7°C 47.3°F8.5°C 71% Calm Calm -- 30.07 in1018.3 mb 0.00 in0.0 mm 0.00 in/hr0.0 mm/hr 0.00 in0.0 mm
10:30 AM 56.8°F13.8°C 47.8°F8.8°C 72% 0.2 mph WNW0.3 kmh WNW 5.0 mph8.0 kmh 30.07 in1018.3 mb 0.00 in0.0 mm 0.00 in/hr0.0 mm/hr 0.00 in0.0 mm
10:20 AM 56.4°F13.6°C 47.9°F8.8°C 73% Calm Calm -- 30.07 in1018.3 mb 0.00 in0.0 mm 0.00 in/hr0.0 mm/hr 0.00 in0.0 mm
10:10 AM 55.8°F13.2°C 48.0°F8.9°C 75% 1.1 mph NNE1.8 kmh NNE 1.0 mph1.6 kmh 30.07 in1018.3 mb 0.00 in0.0 mm 0.00 in/hr0.0 mm/hr 0.00 in0.0 mm
10:00 AM 55.2°F12.9°C 47.8°F8.8°C 76% 0.9 mph NW1.4 kmh NW 1.0 mph1.6 kmh 30.07 in1018.3 mb 0.00 in0.0 mm 0.00 in/hr0.0 mm/hr 0.00 in0.0 mm
09:50 AM 54.8°F12.7°C 47.7°F8.7°C 77% 0.5 mph NNW0.8 kmh NNW 5.0 mph8.0 kmh 30.07 in1018.3 mb 0.00 in0.0 mm 0.00 in/hr0.0 mm/hr 0.00 in0.0 mm
09:40 AM 54.6°F12.6°C 47.5°F8.6°C 77% 0.9 mph NW1.4 kmh NW 1.0 mph1.6 kmh 30.06 in1017.9 mb 0.00 in0.0 mm 0.00 in/hr0.0 mm/hr 0.00 in0.0 mm
09:30 AM 54.6°F12.6°C 47.5°F8.6°C 77% 1.2 mph NW1.9 kmh NW 4.0 mph6.4 kmh 30.06 in1017.9 mb 0.00 in0.0 mm 0.00 in/hr0.0 mm/hr 0.00 in0.0 mm
09:20 AM 53.9°F12.2°C 47.6°F8.7°C 79% 0.1 mph WSW0.2 kmh WSW 1.0 mph1.6 kmh 30.05 in1017.6 mb 0.00 in0.0 mm 0.00 in/hr0.0 mm/hr 0.00 in0.0 mm
09:10 AM 53.3°F11.8°C 46.6°F8.1°C 78% 0.3 mph WNW0.5 kmh WNW 2.0 mph3.2 kmh 30.04 in1017.3 mb 0.00 in0.0 mm 0.00 in/hr0.0 mm/hr 0.00 in0.0 mm
09:00 AM 53.6°F12.0°C 46.9°F8.3°C 78% 0.7 mph WNW1.1 kmh WNW 6.0 mph9.7 kmh 30.04 in1017.3 mb 0.00 in0.0 mm 0.00 in/hr0.0 mm/hr 0.00 in0.0 mm
08:50 AM 53.5°F11.9°C 47.2°F8.4°C 79% Calm Calm -- 30.03 in1016.9 mb 0.00 in0.0 mm 0.00 in/hr0.0 mm/hr 0.00 in0.0 mm
08:40 AM 53.2°F11.8°C 46.9°F8.3°C 79% 0.8 mph WNW1.3 kmh WNW 4.0 mph6.4 kmh 30.02 in1016.6 mb 0.00 in0.0 mm 0.00 in/hr0.0 mm/hr 0.00 in0.0 mm
08:30 AM 52.9°F11.6°C 46.9°F8.3°C 80% Calm Calm 1.0 mph1.6 kmh 30.01 in1016.3 mb 0.00 in0.0 mm 0.00 in/hr0.0 mm/hr 0.00 in0.0 mm
08:20 AM 52.6°F11.4°C 46.6°F8.1°C 80% 0.6 mph W1.0 kmh W 2.0 mph3.2 kmh 30.01 in1016.3 mb 0.00 in0.0 mm 0.00 in/hr0.0 mm/hr 0.00 in0.0 mm
08:10 AM 52.8°F11.6°C 46.5°F8.1°C 79% Calm Calm -- 30.00 in1015.9 mb 0.00 in0.0 mm 0.00 in/hr0.0 mm/hr 0.00 in0.0 mm
08:00 AM 53.2°F11.8°C 46.5°F8.1°C 78% 0.4 mph NNW0.6 kmh NNW 1.0 mph1.6 kmh 30.00 in1015.9 mb 0.00 in0.0 mm 0.00 in/hr0.0 mm/hr 0.00 in0.0 mm
07:50 AM 53.5°F11.9°C 46.8°F8.2°C 78% 0.6 mph W1.0 kmh W 4.0 mph6.4 kmh 30.00 in1015.9 mb 0.00 in0.0 mm 0.00 in/hr0.0 mm/hr 0.00 in0.0 mm
07:40 AM 53.3°F11.8°C 46.7°F8.2°C 78% Calm Calm -- 29.99 in1015.6 mb 0.00 in0.0 mm 0.00 in/hr0.0 mm/hr 0.00 in0.0 mm
07:30 AM 53.2°F11.8°C 46.5°F8.1°C 78% 0.2 mph NW0.3 kmh NW 4.0 mph6.4 kmh 29.98 in1015.2 mb 0.00 in0.0 mm 0.00 in/hr0.0 mm/hr 0.00 in0.0 mm
07:20 AM 53.1°F11.7°C 46.4°F8.0°C 78% Calm Calm -- 29.98 in1015.2 mb 0.00 in0.0 mm 0.00 in/hr0.0 mm/hr 0.00 in0.0 mm
07:10 AM 53.1°F11.7°C 46.1°F7.8°C 77% 1.4 mph WNW2.3 kmh WNW 3.0 mph4.8 kmh 29.97 in1014.9 mb 0.00 in0.0 mm 0.00 in/hr0.0 mm/hr 0.00 in0.0 mm
07:00 AM 52.8°F11.6°C 46.1°F7.8°C 78% Calm Calm 3.0 mph4.8 kmh 29.96 in1014.6 mb 0.00 in0.0 mm 0.00 in/hr0.0 mm/hr 0.00 in0.0 mm
06:50 AM 52.6°F11.4°C 46.0°F7.8°C 78% 1.6 mph N2.6 kmh N 2.0 mph3.2 kmh 29.95 in1014.2 mb 0.00 in0.0 mm 0.00 in/hr0.0 mm/hr 0.00 in0.0 mm
06:40 AM 52.5°F11.4°C 46.2°F7.9°C 79% 0.2 mph NW0.3 kmh NW 5.0 mph8.0 kmh 29.95 in1014.2 mb 0.00 in0.0 mm 0.00 in/hr0.0 mm/hr 0.00 in0.0 mm
06:30 AM 52.5°F11.4°C 46.1°F7.8°C 79% 0.8 mph NW1.3 kmh NW 2.0 mph3.2 kmh 29.94 in1013.9 mb 0.00 in0.0 mm 0.00 in/hr0.0 mm/hr 0.00 in0.0 mm
06:20 AM 52.5°F11.4°C 46.2°F7.9°C 79% 1.4 mph NNW2.3 kmh NNW 2.0 mph3.2 kmh 29.94 in1013.9 mb 0.00 in0.0 mm 0.00 in/hr0.0 mm/hr 0.00 in0.0 mm
06:10 AM 52.5°F11.4°C 46.2°F7.9°C 79% 0.3 mph NW0.5 kmh NW 4.0 mph6.4 kmh 29.93 in1013.5 mb 0.00 in0.0 mm 0.00 in/hr0.0 mm/hr 0.00 in0.0 mm
06:00 AM 52.6°F11.4°C 46.3°F7.9°C 79% 1.0 mph NW1.6 kmh NW 2.0 mph3.2 kmh 29.93 in1013.5 mb 0.00 in0.0 mm 0.00 in/hr0.0 mm/hr 0.00 in0.0 mm
05:50 AM 52.6°F11.4°C 45.9°F7.7°C 78% 1.9 mph NW3.1 kmh NW 5.0 mph8.0 kmh 29.92 in1013.2 mb 0.00 in0.0 mm 0.00 in/hr0.0 mm/hr 0.00 in0.0 mm
05:40 AM 52.7°F11.5°C 46.0°F7.8°C 78% 0.3 mph N0.5 kmh N 2.0 mph3.2 kmh 29.92 in1013.2 mb 0.00 in0.0 mm 0.00 in/hr0.0 mm/hr 0.00 in0.0 mm
05:30 AM 52.9°F11.6°C 46.2°F7.9°C 78% 0.4 mph NW0.6 kmh NW 3.0 mph4.8 kmh 29.91 in1012.9 mb 0.00 in0.0 mm 0.00 in/hr0.0 mm/hr 0.00 in0.0 mm
05:20 AM 52.9°F11.6°C 45.9°F7.7°C 77% 1.9 mph WNW3.1 kmh WNW 4.0 mph6.4 kmh 29.90 in1012.5 mb 0.00 in0.0 mm 0.00 in/hr0.0 mm/hr 0.00 in0.0 mm
05:10 AM 53.0°F11.7°C 46.3°F7.9°C 78% 0.3 mph NW0.5 kmh NW 7.0 mph11.3 kmh 29.89 in1012.2 mb 0.00 in0.0 mm 0.00 in/hr0.0 mm/hr 0.00 in0.0 mm
05:00 AM 53.0°F11.7°C 46.0°F7.8°C 77% 1.3 mph E2.1 kmh E 6.0 mph9.7 kmh 29.89 in1012.2 mb 0.00 in0.0 mm 0.00 in/hr0.0 mm/hr 0.00 in0.0 mm
04:50 AM 52.8°F11.6°C 45.8°F7.7°C 77% 0.2 mph NNW0.3 kmh NNW -- 29.88 in1011.9 mb 0.00 in0.0 mm 0.00 in/hr0.0 mm/hr 0.00 in0.0 mm
04:40 AM 53.0°F11.7°C 46.0°F7.8°C 77% 2.5 mph WSW4.0 kmh WSW 4.0 mph6.4 kmh 29.88 in1011.9 mb 0.00 in0.0 mm 0.00 in/hr0.0 mm/hr 0.00 in0.0 mm
04:30 AM 53.2°F11.8°C 45.8°F7.7°C 76% 0.4 mph WSW0.6 kmh WSW -- 29.88 in1011.9 mb 0.00 in0.0 mm 0.00 in/hr0.0 mm/hr 0.00 in0.0 mm
04:20 AM 53.1°F11.7°C 45.7°F7.6°C 76% Calm Calm -- 29.87 in1011.5 mb 0.00 in0.0 mm 0.00 in/hr0.0 mm/hr 0.00 in0.0 mm
04:10 AM 53.3°F11.8°C 45.9°F7.7°C 76% Calm Calm -- 29.87 in1011.5 mb 0.00 in0.0 mm 0.00 in/hr0.0 mm/hr 0.00 in0.0 mm
04:00 AM 53.3°F11.8°C 45.9°F7.7°C 76% 3.7 mph W6.0 kmh W 7.0 mph11.3 kmh 29.87 in1011.5 mb 0.00 in0.0 mm 0.00 in/hr0.0 mm/hr 0.00 in0.0 mm
03:50 AM 53.0°F11.7°C 46.0°F7.8°C 77% 0.5 mph NW0.8 kmh NW 4.0 mph6.4 kmh 29.86 in1011.2 mb 0.00 in0.0 mm 0.00 in/hr0.0 mm/hr 0.00 in0.0 mm
03:40 AM 52.8°F11.6°C 45.8°F7.7°C 77% 1.4 mph NW2.3 kmh NW 2.0 mph3.2 kmh 29.86 in1011.2 mb 0.00 in0.0 mm 0.00 in/hr0.0 mm/hr 0.00 in0.0 mm
03:30 AM 53.0°F11.7°C 46.0°F7.8°C 77% 2.2 mph NW3.5 kmh NW 10.0 mph16.1 kmh 29.85 in1010.8 mb 0.00 in0.0 mm 0.00 in/hr0.0 mm/hr 0.00 in0.0 mm
03:20 AM 53.3°F11.8°C 46.2°F7.9°C 77% 0.2 mph NW0.3 kmh NW -- 29.85 in1010.8 mb 0.00 in0.0 mm 0.00 in/hr0.0 mm/hr 0.00 in0.0 mm
03:10 AM 53.6°F12.0°C 46.5°F8.1°C 77% Calm Calm -- 29.84 in1010.5 mb 0.00 in0.0 mm 0.00 in/hr0.0 mm/hr 0.00 in0.0 mm
03:00 AM 53.5°F11.9°C 46.5°F8.1°C 77% 1.1 mph NW1.8 kmh NW 7.0 mph11.3 kmh 29.84 in1010.5 mb 0.00 in0.0 mm 0.00 in/hr0.0 mm/hr 0.00 in0.0 mm
02:50 AM 53.7°F12.1°C 46.3°F7.9°C 76% 0.9 mph W1.4 kmh W 1.0 mph1.6 kmh 29.83 in1010.2 mb 0.00 in0.0 mm 0.00 in/hr0.0 mm/hr 0.00 in0.0 mm
02:40 AM 53.9°F12.2°C 46.2°F7.9°C 75% 1.5 mph WNW2.4 kmh WNW 3.0 mph4.8 kmh 29.83 in1010.2 mb 0.00 in0.0 mm 0.00 in/hr0.0 mm/hr 0.00 in0.0 mm
02:30 AM 54.2°F12.3°C 46.4°F8.0°C 75% 0.9 mph NW1.4 kmh NW 5.0 mph8.0 kmh 29.83 in1010.2 mb 0.00 in0.0 mm 0.00 in/hr0.0 mm/hr 0.00 in0.0 mm
02:20 AM 54.4°F12.4°C 46.6°F8.1°C 75% 2.1 mph NNW3.4 kmh NNW 3.0 mph4.8 kmh 29.82 in1009.8 mb 0.00 in0.0 mm 0.00 in/hr0.0 mm/hr 0.00 in0.0 mm
02:10 AM 54.6°F12.6°C 47.5°F8.6°C 77% 0.2 mph WNW0.3 kmh WNW 3.0 mph4.8 kmh 29.82 in1009.8 mb 0.00 in0.0 mm 0.00 in/hr0.0 mm/hr 0.00 in0.0 mm
02:00 AM 54.9°F12.7°C 47.5°F8.6°C 76% 0.7 mph NW1.1 kmh NW 4.0 mph6.4 kmh 29.82 in1009.8 mb 0.00 in0.0 mm 0.00 in/hr0.0 mm/hr 0.00 in0.0 mm
01:50 AM 55.0°F12.8°C 47.6°F8.7°C 76% 3.1 mph WNW5.0 kmh WNW 8.0 mph12.9 kmh 29.82 in1009.8 mb 0.00 in0.0 mm 0.00 in/hr0.0 mm/hr 0.00 in0.0 mm
01:40 AM 55.3°F12.9°C 47.5°F8.6°C 75% 0.4 mph W0.6 kmh W 7.0 mph11.3 kmh 29.81 in1009.5 mb 0.00 in0.0 mm 0.00 in/hr0.0 mm/hr 0.00 in0.0 mm
01:30 AM 55.5°F13.1°C 48.1°F8.9°C 76% 1.4 mph WNW2.3 kmh WNW 5.0 mph8.0 kmh 29.80 in1009.1 mb 0.00 in0.0 mm 0.00 in/hr0.0 mm/hr 0.00 in0.0 mm
01:20 AM 55.8°F13.2°C 48.3°F9.1°C 76% 0.1 mph N0.2 kmh N 1.0 mph1.6 kmh 29.80 in1009.1 mb 0.00 in0.0 mm 0.00 in/hr0.0 mm/hr 0.00 in0.0 mm
01:10 AM 55.8°F13.2°C 48.3°F9.1°C 76% 2.7 mph WNW4.3 kmh WNW 6.0 mph9.7 kmh 29.80 in1009.1 mb 0.00 in0.0 mm 0.00 in/hr0.0 mm/hr 0.00 in0.0 mm
01:00 AM 55.7°F13.2°C 48.6°F9.2°C 77% Calm Calm -- 29.79 in1008.8 mb 0.00 in0.0 mm 0.00 in/hr0.0 mm/hr 0.00 in0.0 mm
12:50 AM 55.9°F13.3°C 48.8°F9.3°C 77% 0.4 mph WSW0.6 kmh WSW 1.0 mph1.6 kmh 29.79 in1008.8 mb 0.00 in0.0 mm 0.00 in/hr0.0 mm/hr 0.00 in0.0 mm
12:40 AM 56.1°F13.4°C 49.0°F9.4°C 77% Calm Calm -- 29.79 in1008.8 mb 0.00 in0.0 mm 0.00 in/hr0.0 mm/hr 0.00 in0.0 mm
12:30 AM 56.2°F13.4°C 49.1°F9.5°C 77% 1.5 mph WNW2.4 kmh WNW 7.0 mph11.3 kmh 29.79 in1008.8 mb 0.00 in0.0 mm 0.00 in/hr0.0 mm/hr 0.00 in0.0 mm
12:20 AM 56.3°F13.5°C 49.5°F9.7°C 78% 0.7 mph W1.1 kmh W 5.0 mph8.0 kmh 29.79 in1008.8 mb 0.00 in0.0 mm 0.00 in/hr0.0 mm/hr 0.00 in0.0 mm
12:10 AM 56.4°F13.6°C 49.6°F9.8°C 78% 2.1 mph NW3.4 kmh NW 9.0 mph14.5 kmh 29.79 in1008.8 mb 0.00 in0.0 mm 0.00 in/hr0.0 mm/hr 0.00 in0.0 mm
12:00 AM 56.6°F13.7°C 49.5°F9.7°C 77% 1.1 mph WNW1.8 kmh WNW 7.0 mph11.3 kmh 29.79 in1008.8 mb 0.00 in0.0 mm 0.00 in/hr0.0 mm/hr 0.00 in0.0 mm